createdAt,value
2022-12-19T00:01:32.449Z,66.90
2022-12-19T00:04:07.520Z,60.50
2022-12-19T00:06:39.515Z,63.50
2022-12-19T00:09:13.033Z,60.90
2022-12-19T00:11:42.315Z,67.30
2022-12-19T00:14:11.858Z,58.90
2022-12-19T00:16:40.400Z,65.50
2022-12-19T00:19:10.871Z,68.20
2022-12-19T00:21:39.839Z,67.30
2022-12-19T00:24:20.597Z,62.30
2022-12-19T00:26:50.397Z,60.80
2022-12-19T00:29:19.110Z,62.30
2022-12-19T00:31:47.630Z,61.50
2022-12-19T00:34:16.443Z,69.00
2022-12-19T00:36:45.018Z,66.80
2022-12-19T00:39:13.555Z,60.60
2022-12-19T00:41:42.647Z,64.90
2022-12-19T00:44:17.237Z,65.20
2022-12-19T00:46:47.412Z,64.30
2022-12-19T00:49:21.884Z,73.60
2022-12-19T00:51:50.564Z,63.60
2022-12-19T00:54:19.088Z,73.40
2022-12-19T00:56:48.197Z,65.90
2022-12-19T00:59:20.085Z,63.50
2022-12-19T01:17:07.463Z,63.70
2022-12-19T01:19:41.921Z,64.50
2022-12-19T01:22:13.687Z,72.70
2022-12-19T01:24:42.472Z,70.50
2022-12-19T01:27:11.369Z,66.50
2022-12-19T01:29:52.441Z,69.30
2022-12-19T01:32:23.402Z,70.70
2022-12-19T01:34:53.100Z,65.80
2022-12-19T01:37:21.478Z,66.80
2022-12-19T01:39:49.763Z,69.60
2022-12-19T01:42:23.623Z,63.60
2022-12-19T01:45:19.340Z,65.20
2022-12-19T01:47:53.682Z,67.60
2022-12-19T01:51:02.921Z,62.10
2022-12-19T01:53:48.298Z,68.10
2022-12-19T01:56:24.876Z,62.10
2022-12-19T01:59:05.712Z,66.70
2022-12-19T02:01:40.904Z,68.50
2022-12-19T02:04:29.417Z,67.50
2022-12-19T02:07:15.595Z,65.40
2022-12-19T02:09:46.913Z,68.60
2022-12-19T02:12:15.573Z,70.70
2022-12-19T02:14:44.043Z,72.70
2022-12-19T02:17:34.337Z,64.00
2022-12-19T02:20:30.186Z,64.70
2022-12-19T02:23:05.048Z,71.70
2022-12-19T02:25:50.056Z,72.40
2022-12-19T02:28:32.945Z,68.50
2022-12-19T02:31:30.813Z,74.20
2022-12-19T02:34:15.674Z,68.00
2022-12-19T02:37:20.909Z,67.90
2022-12-19T02:40:14.965Z,75.90
2022-12-19T02:42:46.671Z,71.80
2022-12-19T02:45:24.713Z,76.40
2022-12-19T02:48:04.479Z,69.30
2022-12-19T02:50:39.102Z,70.30
2022-12-19T02:53:09.484Z,73.20
2022-12-19T02:56:00.137Z,67.30
2022-12-19T02:58:57.017Z,74.30
2022-12-19T03:02:18.896Z,77.60
2022-12-19T03:05:16.817Z,76.30
2022-12-19T03:08:06.478Z,73.80
2022-12-19T03:10:47.301Z,71.50
2022-12-19T03:13:21.661Z,66.00
2022-12-19T03:15:51.363Z,76.90
2022-12-19T03:18:20.230Z,68.10
2022-12-19T03:21:11.007Z,64.30
2022-12-19T03:23:40.896Z,82.20
2022-12-19T03:26:19.926Z,78.70
2022-12-19T03:28:52.766Z,71.30
2022-12-19T03:31:25.427Z,72.30
2022-12-19T03:34:03.303Z,67.90
2022-12-19T03:36:38.986Z,65.40
2022-12-19T03:39:10.222Z,60.20
2022-12-19T03:41:59.602Z,69.00
2022-12-19T03:44:33.655Z,69.70
2022-12-19T03:47:11.850Z,72.10
2022-12-19T03:49:40.663Z,66.20
2022-12-19T03:52:25.368Z,68.80
2022-12-19T03:55:18.243Z,65.20
2022-12-19T03:57:59.356Z,65.10
2022-12-19T04:00:29.972Z,75.70
2022-12-19T04:02:59.718Z,70.20
2022-12-19T04:05:29.118Z,63.70
2022-12-19T04:08:04.423Z,69.00
2022-12-19T04:10:38.572Z,71.50
2022-12-19T04:13:13.216Z,70.50
2022-12-19T04:16:01.442Z,63.70
2022-12-19T04:18:31.582Z,66.20
2022-12-19T04:21:13.203Z,65.10
2022-12-19T04:23:47.995Z,61.80
2022-12-19T04:26:18.848Z,64.30
2022-12-19T04:28:52.349Z,68.30
2022-12-19T04:31:22.176Z,62.40
2022-12-19T04:33:50.520Z,56.00
2022-12-19T04:36:19.022Z,56.60
2022-12-19T04:38:47.799Z,62.20
2022-12-19T04:41:16.061Z,54.50
2022-12-19T04:43:44.506Z,55.30
2022-12-19T04:46:13.182Z,55.30
2022-12-19T04:48:41.509Z,51.20
2022-12-19T04:51:10.193Z,58.30
2022-12-19T04:53:38.561Z,58.30
2022-12-19T04:56:07.672Z,51.60
2022-12-19T04:58:36.192Z,51.40
2022-12-19T05:01:06.845Z,51.80
2022-12-19T05:03:36.610Z,48.10
2022-12-19T05:06:05.280Z,48.50
2022-12-19T05:08:34.996Z,49.50
2022-12-19T05:11:05.175Z,45.50
2022-12-19T05:13:34.011Z,54.60
2022-12-19T05:16:05.598Z,50.10
2022-12-19T05:18:34.477Z,45.30
2022-12-19T05:21:03.344Z,47.60
2022-12-19T05:23:32.215Z,45.10
2022-12-19T05:26:02.040Z,46.60
2022-12-19T05:28:30.970Z,48.50
2022-12-19T05:31:08.847Z,47.50
2022-12-19T05:33:38.454Z,50.80
2022-12-19T05:36:08.555Z,35.90
2022-12-19T05:38:37.494Z,48.90
2022-12-19T05:41:17.953Z,44.00
2022-12-19T05:43:50.344Z,51.00
2022-12-19T05:46:19.434Z,53.20
2022-12-19T05:48:48.310Z,54.50
2022-12-19T05:51:16.995Z,43.40
2022-12-19T05:53:45.369Z,54.70
2022-12-19T05:56:17.093Z,45.30
2022-12-19T05:58:46.635Z,46.60
2022-12-19T06:01:18.986Z,51.70
2022-12-19T06:03:48.543Z,47.50
2022-12-19T06:06:20.208Z,45.60
2022-12-19T06:08:48.612Z,42.20
2022-12-19T06:11:16.960Z,45.20
2022-12-19T06:13:45.219Z,43.40
2022-12-19T06:16:15.781Z,52.20
2022-12-19T06:18:45.843Z,48.70
2022-12-19T06:21:20.500Z,50.30
2022-12-19T06:23:49.215Z,55.70
2022-12-19T06:26:22.694Z,46.60
2022-12-19T06:28:53.330Z,52.20
2022-12-19T06:31:23.608Z,52.70
2022-12-19T06:33:54.998Z,52.50
2022-12-19T06:36:26.252Z,51.50
2022-12-19T06:38:58.113Z,44.90
2022-12-19T06:41:46.539Z,51.80
2022-12-19T06:44:16.809Z,57.10
2022-12-19T06:46:45.372Z,49.90
2022-12-19T06:49:13.746Z,55.00
2022-12-19T06:51:42.876Z,52.40
2022-12-19T06:54:12.567Z,53.30
2022-12-19T06:56:42.902Z,48.10
2022-12-19T06:59:14.420Z,56.10
2022-12-19T07:02:02.918Z,48.30
2022-12-19T07:04:40.473Z,53.90
2022-12-19T07:07:09.064Z,49.30
2022-12-19T07:09:37.699Z,41.90
2022-12-19T07:12:06.212Z,46.60
2022-12-19T07:14:34.632Z,50.30
2022-12-19T07:17:04.021Z,48.50
2022-12-19T07:19:33.467Z,50.00
2022-12-19T07:22:03.733Z,45.80
2022-12-19T07:24:32.967Z,43.80
2022-12-19T07:27:01.332Z,43.20
2022-12-19T07:29:29.719Z,50.80
2022-12-19T07:31:58.136Z,48.50
2022-12-19T07:34:26.556Z,42.60
2022-12-19T07:36:55.117Z,48.50
2022-12-19T07:39:23.446Z,44.80
2022-12-19T07:41:51.793Z,49.30
2022-12-19T07:44:28.428Z,50.70
2022-12-19T07:46:56.807Z,51.30
2022-12-19T07:49:25.096Z,43.00
2022-12-19T07:51:53.667Z,45.30
2022-12-19T07:54:22.056Z,46.60
2022-12-19T07:56:51.109Z,42.00
2022-12-19T07:59:21.388Z,47.80
2022-12-19T08:01:52.917Z,44.00
2022-12-19T08:04:21.432Z,44.40
2022-12-19T08:06:49.772Z,37.40
2022-12-19T08:09:18.345Z,40.20
2022-12-19T08:11:46.925Z,40.80
2022-12-19T08:14:15.290Z,38.50
2022-12-19T08:17:11.390Z,40.00
2022-12-19T08:19:31.956Z,28.00
2022-12-19T08:22:00.293Z,40.20
2022-12-19T08:24:28.611Z,40.40
2022-12-19T08:26:57.451Z,37.10
2022-12-19T08:29:25.791Z,35.50
2022-12-19T08:31:54.360Z,37.90
2022-12-19T08:34:22.569Z,40.40
2022-12-19T08:36:50.950Z,40.30
2022-12-19T08:39:19.259Z,39.10
2022-12-19T08:41:47.774Z,42.60
2022-12-19T08:44:16.604Z,39.10
2022-12-19T08:46:50.043Z,39.70
2022-12-19T08:49:19.706Z,38.30
2022-12-19T08:51:48.031Z,35.30
2022-12-19T08:54:16.442Z,39.20
2022-12-19T08:56:46.253Z,38.80
2022-12-19T08:59:30.563Z,37.40
2022-12-19T09:02:02.236Z,37.10
2022-12-19T09:06:00.542Z,43.20
2022-12-19T09:07:19.470Z,31.10
2022-12-19T09:09:47.775Z,28.90
2022-12-19T09:12:16.925Z,31.80
2022-12-19T09:14:45.515Z,34.00
2022-12-19T09:17:14.052Z,36.90
2022-12-19T09:19:45.557Z,40.90
2022-12-19T09:22:16.963Z,38.70
2022-12-19T09:24:45.822Z,38.80
2022-12-19T09:27:14.740Z,39.20
2022-12-19T09:29:44.111Z,42.90
2022-12-19T09:32:12.637Z,37.60
2022-12-19T09:34:40.986Z,38.30
2022-12-19T09:37:16.939Z,39.10
2022-12-19T09:39:47.568Z,38.90
2022-12-19T09:42:48.539Z,37.00
2022-12-19T09:45:37.561Z,39.20
2022-12-19T09:48:23.909Z,36.20
2022-12-19T09:51:09.560Z,36.50
2022-12-19T09:53:38.411Z,41.90
2022-12-19T09:56:14.799Z,32.00
2022-12-19T09:59:28.492Z,36.40
2022-12-19T10:02:39.149Z,36.40
2022-12-19T10:05:52.319Z,35.00
2022-12-19T10:08:45.359Z,34.80
2022-12-19T10:12:39.583Z,40.50
2022-12-19T10:14:48.997Z,40.30
2022-12-19T10:17:41.950Z,36.60
2022-12-19T10:20:49.857Z,37.20
2022-12-19T10:23:50.412Z,36.60
2022-12-19T10:26:21.534Z,35.60
2022-12-19T10:29:13.515Z,34.90
2022-12-19T10:32:17.805Z,35.10
2022-12-19T10:34:48.237Z,37.50
2022-12-19T10:37:31.435Z,35.00
2022-12-19T10:40:34.901Z,36.10
2022-12-19T10:43:18.230Z,37.50
2022-12-19T10:45:58.570Z,36.60
2022-12-19T10:48:30.734Z,38.60
2022-12-19T10:51:06.484Z,35.70
2022-12-19T10:53:35.578Z,34.50
2022-12-19T10:56:23.270Z,38.20
2022-12-19T10:58:57.556Z,36.20
2022-12-19T11:04:34.862Z,35.30
2022-12-19T11:07:03.936Z,39.30
2022-12-19T11:09:45.998Z,33.00
2022-12-19T11:16:15.360Z,36.60
2022-12-19T11:20:51.999Z,38.60
2022-12-19T11:29:14.654Z,35.40
2022-12-19T11:29:37.271Z,37.10
2022-12-19T11:30:37.380Z,36.00
2022-12-19T11:32:44.480Z,35.90
2022-12-19T11:35:24.826Z,29.60
2022-12-19T11:37:58.345Z,36.10
2022-12-19T11:40:49.856Z,37.30
2022-12-19T11:43:46.914Z,34.00
2022-12-19T11:46:45.108Z,34.40
2022-12-19T11:49:38.855Z,36.90
2022-12-19T11:52:29.626Z,35.60
2022-12-19T11:55:08.254Z,35.70
2022-12-19T11:57:39.039Z,39.10
2022-12-19T12:00:13.227Z,38.00
2022-12-19T12:03:12.620Z,38.60
2022-12-19T12:05:48.539Z,38.40
2022-12-19T12:12:00.383Z,36.10
2022-12-19T12:27:11.796Z,41.10
2022-12-19T12:31:00.177Z,40.80
2022-12-19T12:31:26.999Z,34.30
2022-12-19T12:31:50.450Z,41.70
2022-12-19T12:32:02.520Z,39.90
2022-12-19T12:32:03.003Z,36.80
2022-12-19T12:35:52.125Z,37.90
2022-12-19T12:39:36.678Z,36.70
2022-12-19T12:42:20.198Z,40.20
2022-12-19T12:44:52.914Z,41.20
2022-12-19T12:47:26.272Z,44.70
2022-12-19T12:50:00.882Z,42.80
2022-12-19T12:52:40.609Z,44.50
2022-12-19T12:55:40.342Z,42.10
2022-12-19T12:58:46.500Z,39.80
2022-12-19T13:01:30.423Z,44.70
2022-12-19T13:04:10.999Z,39.20
2022-12-19T13:06:52.077Z,43.30
2022-12-19T13:09:20.567Z,47.10
2022-12-19T13:12:13.033Z,40.80
2022-12-19T13:14:44.690Z,43.30
2022-12-19T13:17:20.661Z,44.70
2022-12-19T13:20:05.603Z,45.10
2022-12-19T13:22:33.900Z,41.50
2022-12-19T13:25:02.255Z,43.10
2022-12-19T13:27:37.435Z,47.00
2022-12-19T13:30:14.973Z,48.90
2022-12-19T13:32:43.604Z,44.50
2022-12-19T13:37:07.553Z,44.70
2022-12-19T13:39:57.818Z,47.30
2022-12-19T13:41:48.598Z,42.10
2022-12-19T13:44:22.447Z,40.70
2022-12-19T13:46:51.073Z,47.10
2022-12-19T13:49:30.536Z,51.00
2022-12-19T13:52:04.857Z,42.60
2022-12-19T13:54:51.917Z,46.20
2022-12-19T13:57:30.793Z,41.30
2022-12-19T14:00:06.708Z,51.30
2022-12-19T14:02:46.358Z,43.70
2022-12-19T14:06:15.171Z,48.80
2022-12-19T14:08:25.092Z,49.50
2022-12-19T14:11:38.340Z,46.30
2022-12-19T14:14:17.441Z,41.50
2022-12-19T14:16:47.819Z,47.60
2022-12-19T14:19:25.144Z,49.80
2022-12-19T14:22:04.563Z,49.70
2022-12-19T14:24:41.706Z,48.00
2022-12-19T14:28:18.229Z,45.70
2022-12-19T14:30:27.920Z,45.50
2022-12-19T14:33:46.640Z,46.10
2022-12-19T14:36:06.506Z,49.60
2022-12-19T14:39:22.536Z,52.20
2022-12-19T14:42:02.493Z,49.30
2022-12-19T14:52:08.397Z,44.80
2022-12-19T14:54:03.494Z,44.60
2022-12-19T14:54:30.696Z,51.60
2022-12-19T14:54:40.482Z,48.10
2022-12-19T14:59:42.345Z,51.50
2022-12-19T15:26:28.915Z,46.30
2022-12-19T15:28:58.337Z,47.40
2022-12-19T15:31:40.440Z,42.10
2022-12-19T15:34:48.293Z,51.10
2022-12-19T15:37:15.002Z,50.40
2022-12-19T15:39:44.670Z,56.60
2022-12-19T15:42:23.047Z,53.50
2022-12-19T15:44:53.868Z,51.10
2022-12-19T15:47:30.001Z,58.00
2022-12-19T15:50:02.659Z,54.90
2022-12-19T15:52:30.997Z,53.80
2022-12-19T15:54:59.257Z,52.60
2022-12-19T15:57:36.438Z,51.40
2022-12-19T16:00:17.167Z,51.30
2022-12-19T16:05:36.203Z,52.00
2022-12-19T16:08:12.176Z,56.80
2022-12-19T16:10:41.912Z,56.70
2022-12-19T16:13:24.394Z,55.00
2022-12-19T16:15:55.096Z,51.10
2022-12-19T16:18:23.735Z,52.00
2022-12-19T16:20:52.389Z,52.10
2022-12-19T16:23:22.439Z,57.40
2022-12-19T16:25:52.082Z,52.50
2022-12-19T16:28:23.917Z,54.10
2022-12-19T16:30:52.785Z,51.60
2022-12-19T16:33:24.048Z,50.40
2022-12-19T16:36:04.077Z,52.50
2022-12-19T16:38:33.645Z,52.00
2022-12-19T16:41:02.793Z,53.90
2022-12-19T16:43:40.939Z,48.90
2022-12-19T16:46:17.693Z,52.80
2022-12-19T16:48:50.010Z,52.00
2022-12-19T16:51:24.822Z,47.30
2022-12-19T16:53:57.679Z,57.00
2022-12-19T16:58:56.495Z,56.30
2022-12-19T17:01:24.881Z,58.70
2022-12-19T17:03:54.522Z,53.00
2022-12-19T17:06:23.946Z,50.00
2022-12-19T17:08:54.033Z,56.00
2022-12-19T17:11:24.908Z,57.10
2022-12-19T17:14:00.608Z,56.90
2022-12-19T17:16:31.185Z,57.30
2022-12-19T17:18:59.984Z,58.30
2022-12-19T17:21:28.523Z,62.00
2022-12-19T17:23:56.988Z,61.00
2022-12-19T17:26:25.336Z,59.70
2022-12-19T17:28:53.660Z,58.40
2022-12-19T17:31:26.450Z,58.20
2022-12-19T17:33:57.937Z,61.90
2022-12-19T17:36:36.757Z,59.40
2022-12-19T17:39:23.169Z,62.00
2022-12-19T17:41:52.980Z,68.50
2022-12-19T17:44:21.339Z,60.40
2022-12-19T17:46:49.937Z,61.50
2022-12-19T17:49:27.120Z,60.70
2022-12-19T17:51:56.249Z,61.30
2022-12-19T17:54:25.744Z,59.50
2022-12-19T17:56:54.098Z,62.10
2022-12-19T17:59:22.449Z,54.90
2022-12-19T18:01:51.084Z,60.30
2022-12-19T18:04:21.790Z,57.80
2022-12-19T18:06:50.801Z,60.40
2022-12-19T18:09:25.353Z,56.40
2022-12-19T18:11:53.722Z,58.70
2022-12-19T18:14:22.063Z,58.20
2022-12-19T18:16:50.951Z,61.20
2022-12-19T18:19:21.851Z,64.10
2022-12-19T18:21:50.585Z,59.80
2022-12-19T18:24:18.924Z,61.40
2022-12-19T18:26:47.262Z,59.50
2022-12-19T18:29:16.429Z,63.50
2022-12-19T18:31:50.577Z,59.60
2022-12-19T18:34:23.239Z,59.00
2022-12-19T18:36:52.610Z,58.10
2022-12-19T18:39:24.945Z,55.20
2022-12-19T18:44:23.221Z,64.50
2022-12-19T18:46:53.008Z,61.00
2022-12-19T18:49:22.997Z,59.30
2022-12-19T18:51:51.455Z,56.40
2022-12-19T18:54:22.326Z,61.00
2022-12-19T18:56:51.948Z,56.30
2022-12-19T18:59:20.591Z,57.20
2022-12-19T19:01:49.133Z,60.70
2022-12-19T19:04:18.339Z,58.70
2022-12-19T19:06:51.413Z,60.00
2022-12-19T19:09:21.658Z,57.60
2022-12-19T19:12:02.447Z,60.00
2022-12-19T19:14:30.905Z,57.60
2022-12-19T19:16:59.245Z,58.00
2022-12-19T19:19:27.706Z,61.00
2022-12-19T19:21:56.198Z,62.20
2022-12-19T19:24:24.585Z,60.00
2022-12-19T19:26:53.052Z,59.40
2022-12-19T19:29:21.826Z,55.90
2022-12-19T19:31:51.993Z,60.70
2022-12-19T19:34:31.720Z,63.60
2022-12-19T19:37:03.722Z,56.30
2022-12-19T19:39:34.194Z,61.00
2022-12-19T19:42:02.964Z,57.90
2022-12-19T19:44:32.550Z,60.10
2022-12-19T19:47:01.015Z,52.20
2022-12-19T19:49:29.416Z,57.20
2022-12-19T19:52:02.564Z,60.20
2022-12-19T19:54:32.336Z,60.70
2022-12-19T19:57:00.775Z,60.70
2022-12-19T19:59:31.434Z,61.10
2022-12-19T20:02:00.484Z,55.50
2022-12-19T20:04:29.313Z,63.70
2022-12-19T20:06:57.623Z,57.60
2022-12-19T20:09:26.187Z,56.70
2022-12-19T20:11:56.572Z,57.00
2022-12-19T20:14:26.988Z,54.20
2022-12-19T20:16:55.435Z,58.40
2022-12-19T20:19:23.744Z,51.90
2022-12-19T20:21:52.478Z,52.20
2022-12-19T20:24:20.955Z,59.10
2022-12-19T20:26:49.417Z,57.40
2022-12-19T20:29:17.809Z,54.00
2022-12-19T20:31:46.329Z,77.60
2022-12-19T20:34:14.799Z,59.70
2022-12-19T20:36:43.083Z,55.60
2022-12-19T20:39:12.574Z,53.60
2022-12-19T20:41:40.956Z,52.40
2022-12-19T20:44:09.453Z,53.80
2022-12-19T20:46:38.140Z,57.70
2022-12-19T20:49:06.565Z,55.60
2022-12-19T20:51:34.904Z,48.00
2022-12-19T20:54:04.876Z,54.70
2022-12-19T20:56:33.239Z,56.80
2022-12-19T20:59:01.790Z,58.50
2022-12-19T21:01:31.671Z,51.10
2022-12-19T21:04:00.296Z,52.00
2022-12-19T21:06:29.051Z,52.00
2022-12-19T21:08:58.015Z,53.40
2022-12-19T21:11:27.863Z,53.60
2022-12-19T21:13:56.146Z,51.60
2022-12-19T21:16:24.851Z,56.60
2022-12-19T21:18:53.339Z,52.40
2022-12-19T21:21:26.129Z,55.00
2022-12-19T21:23:55.260Z,54.50
2022-12-19T21:26:26.029Z,52.50
2022-12-19T21:28:58.083Z,55.20
2022-12-19T21:31:30.030Z,54.10
2022-12-19T21:34:00.564Z,52.90
2022-12-19T21:36:30.797Z,51.40
2022-12-19T21:39:02.237Z,50.10
2022-12-19T21:41:31.566Z,44.80
2022-12-19T21:44:00.707Z,45.80
2022-12-19T21:46:33.212Z,44.00
2022-12-19T21:49:03.317Z,44.80
2022-12-19T21:51:32.500Z,40.80
2022-12-19T21:54:03.690Z,40.10
2022-12-19T21:56:35.009Z,43.70
2022-12-19T21:59:06.997Z,42.90
2022-12-19T22:01:36.043Z,40.70
2022-12-19T22:04:07.886Z,40.00
2022-12-19T22:06:38.024Z,32.60
2022-12-19T22:09:09.180Z,31.30
2022-12-19T22:11:38.043Z,35.50
2022-12-19T22:14:07.314Z,30.00
2022-12-19T22:16:36.326Z,37.80
2022-12-19T22:19:05.284Z,35.70
2022-12-19T22:21:34.037Z,31.40
2022-12-19T22:24:03.774Z,29.00
2022-12-19T22:26:33.170Z,31.50
2022-12-19T22:29:01.517Z,27.50
2022-12-19T22:31:31.918Z,26.00
2022-12-19T22:34:12.750Z,27.30
2022-12-19T22:36:42.935Z,25.50
2022-12-19T22:39:14.416Z,24.40
2022-12-19T22:41:43.267Z,21.90
2022-12-19T22:44:23.699Z,23.00
2022-12-19T22:46:52.716Z,21.10
2022-12-19T22:49:21.317Z,23.70
2022-12-19T22:51:50.214Z,20.50
2022-12-19T22:54:18.633Z,18.30
2022-12-19T22:56:50.761Z,18.10
2022-12-19T23:01:48.092Z,19.40
2022-12-19T23:04:17.616Z,18.30
2022-12-19T23:06:46.477Z,20.40
2022-12-19T23:09:16.994Z,18.10
2022-12-19T23:11:48.809Z,16.90
2022-12-19T23:14:19.176Z,17.40
2022-12-19T23:16:48.469Z,15.50
2022-12-19T23:19:17.642Z,20.90
2022-12-19T23:21:46.234Z,17.90
2022-12-19T23:24:15.242Z,16.10
2022-12-19T23:26:43.723Z,16.00
2022-12-19T23:29:15.007Z,14.80
2022-12-19T23:31:45.377Z,13.60
2022-12-19T23:34:15.496Z,17.20
2022-12-19T23:39:33.346Z,14.00
2022-12-19T23:42:01.672Z,14.00
2022-12-19T23:44:30.274Z,13.90
2022-12-19T23:47:02.912Z,14.60
2022-12-19T23:49:33.822Z,13.60
2022-12-19T23:52:02.569Z,11.70
2022-12-19T23:54:31.391Z,12.10
2022-12-19T23:56:59.688Z,11.30
2022-12-19T23:59:28.075Z,12.50
